createdAt,value
2023-07-10T00:00:34.106Z,25.06
2023-07-10T00:03:36.061Z,25.07
2023-07-10T00:06:37.841Z,24.99
2023-07-10T00:09:39.951Z,24.84
2023-07-10T00:12:45.013Z,25.01
2023-07-10T00:15:46.747Z,24.67
2023-07-10T00:18:49.414Z,24.32
2023-07-10T00:21:51.214Z,24.25
2023-07-10T00:24:53.348Z,24.36
2023-07-10T00:27:58.528Z,24.45
2023-07-10T00:31:00.484Z,24.49
2023-07-10T00:34:02.912Z,24.35
2023-07-10T00:37:06.356Z,24.04
2023-07-10T00:40:20.118Z,24.01
2023-07-10T00:43:36.331Z,24.05
2023-07-10T00:46:40.388Z,23.96
2023-07-10T00:49:46.553Z,23.74
2023-07-10T00:52:50.001Z,23.80
2023-07-10T00:55:54.541Z,23.74
2023-07-10T00:58:58.080Z,23.67
2023-07-10T01:02:20.525Z,23.73
2023-07-10T01:05:25.059Z,23.55
2023-07-10T01:08:27.777Z,23.62
2023-07-10T01:11:30.365Z,23.42
2023-07-10T01:14:36.827Z,23.43
2023-07-10T01:17:41.167Z,23.23
2023-07-10T01:20:47.717Z,23.19
2023-07-10T01:23:52.086Z,23.32
2023-07-10T01:26:56.855Z,23.40
2023-07-10T01:30:08.017Z,23.33
2023-07-10T01:33:16.268Z,23.21
2023-07-10T01:36:29.583Z,23.02
2023-07-10T01:39:38.044Z,23.05
2023-07-10T01:42:39.786Z,23.13
2023-07-10T01:45:43.857Z,23.02
2023-07-10T01:48:48.888Z,23.01
2023-07-10T01:51:52.027Z,23.08
2023-07-10T01:54:57.216Z,23.04
2023-07-10T01:57:59.415Z,22.76
2023-07-10T02:01:01.757Z,22.89
2023-07-10T02:04:04.645Z,23.04
2023-07-10T02:07:08.911Z,23.18
2023-07-10T02:10:12.457Z,23.11
2023-07-10T02:13:14.531Z,22.93
2023-07-10T02:16:17.132Z,22.62
2023-07-10T02:19:20.470Z,22.67
2023-07-10T02:22:22.336Z,22.79
2023-07-10T02:25:25.599Z,22.89
2023-07-10T02:28:28.669Z,22.57
2023-07-10T02:31:31.650Z,22.54
2023-07-10T02:34:33.916Z,22.71
2023-07-10T02:37:36.132Z,22.55
2023-07-10T02:40:39.277Z,22.68
2023-07-10T02:43:50.416Z,22.52
2023-07-10T02:46:53.674Z,22.52
2023-07-10T02:49:56.219Z,22.41
2023-07-10T02:52:58.759Z,22.36
2023-07-10T02:56:03.931Z,22.52
2023-07-10T02:59:07.945Z,22.63
2023-07-10T03:02:09.762Z,22.78
2023-07-10T03:05:12.217Z,22.55
2023-07-10T03:08:14.140Z,22.37
2023-07-10T03:11:18.095Z,22.40
2023-07-10T03:14:20.003Z,22.57
2023-07-10T03:17:21.817Z,22.41
2023-07-10T03:20:23.932Z,21.74
2023-07-10T03:23:26.746Z,21.07
2023-07-10T03:26:29.927Z,21.27
2023-07-10T03:29:31.919Z,21.27
2023-07-10T03:32:33.916Z,21.25
2023-07-10T03:35:35.845Z,21.15
2023-07-10T03:38:37.627Z,20.96
2023-07-10T03:41:40.761Z,20.79
2023-07-10T03:44:42.616Z,20.70
2023-07-10T03:47:44.787Z,20.83
2023-07-10T03:50:47.684Z,21.02
2023-07-10T03:53:50.066Z,21.17
2023-07-10T03:56:53.139Z,21.24
2023-07-10T03:59:55.001Z,21.06
2023-07-10T04:02:57.177Z,21.11
2023-07-10T04:05:59.696Z,20.67
2023-07-10T04:09:02.053Z,20.75
2023-07-10T04:12:06.296Z,20.68
2023-07-10T04:15:09.586Z,20.98
2023-07-10T04:18:12.496Z,21.02
2023-07-10T04:21:16.894Z,21.19
2023-07-10T04:24:18.741Z,21.01
2023-07-10T04:27:21.839Z,21.21
2023-07-10T04:30:23.770Z,21.45
2023-07-10T04:33:26.348Z,21.28
2023-07-10T04:36:29.650Z,21.15
2023-07-10T04:39:33.591Z,21.26
2023-07-10T04:42:37.682Z,21.43
2023-07-10T04:45:39.931Z,21.42
2023-07-10T04:48:46.968Z,21.52
2023-07-10T04:51:49.023Z,21.55
2023-07-10T04:54:51.736Z,21.44
2023-07-10T04:57:55.490Z,21.16
2023-07-10T05:01:00.715Z,21.05
2023-07-10T05:04:04.837Z,21.30
2023-07-10T05:07:06.799Z,21.35
2023-07-10T05:10:09.262Z,21.46
2023-07-10T05:13:12.376Z,21.40
2023-07-10T05:16:15.289Z,21.11
2023-07-10T05:19:18.315Z,21.05
2023-07-10T05:22:20.292Z,21.03
2023-07-10T05:25:22.596Z,21.04
2023-07-10T05:28:27.204Z,21.04
2023-07-10T05:31:29.003Z,21.11
2023-07-10T05:34:33.924Z,21.52
2023-07-10T05:37:35.728Z,21.65
2023-07-10T05:40:41.828Z,21.85
2023-07-10T05:43:47.047Z,21.80
2023-07-10T05:46:48.742Z,21.82
2023-07-10T05:49:52.761Z,21.82
2023-07-10T05:52:54.457Z,22.12
2023-07-10T05:55:58.084Z,21.91
2023-07-10T05:59:02.070Z,21.75
2023-07-10T06:02:04.321Z,21.77
2023-07-10T06:05:07.106Z,21.84
2023-07-10T06:08:10.046Z,22.02
2023-07-10T06:11:13.083Z,22.00
2023-07-10T06:14:16.246Z,22.04
2023-07-10T06:17:18.078Z,22.11
2023-07-10T06:20:19.744Z,22.09
2023-07-10T06:23:22.158Z,22.34
2023-07-10T06:26:23.908Z,22.32
2023-07-10T06:29:27.030Z,22.20
2023-07-10T06:32:29.139Z,22.50
2023-07-10T06:35:31.002Z,22.62
2023-07-10T06:38:33.168Z,22.69
2023-07-10T06:41:34.977Z,22.74
2023-07-10T06:44:38.173Z,22.95
2023-07-10T06:47:42.537Z,23.00
2023-07-10T06:50:48.117Z,23.04
2023-07-10T06:53:49.989Z,23.08
2023-07-10T06:56:52.316Z,23.17
2023-07-10T06:59:55.584Z,23.36
2023-07-10T07:02:57.688Z,23.55
2023-07-10T07:06:00.593Z,23.79
2023-07-10T07:09:04.973Z,23.73
2023-07-10T07:12:08.680Z,23.69
2023-07-10T07:15:13.812Z,23.67
2023-07-10T07:18:16.269Z,23.77
2023-07-10T07:21:18.080Z,24.03
2023-07-10T07:24:20.034Z,23.90
2023-07-10T07:27:22.233Z,23.91
2023-07-10T07:30:25.926Z,23.92
2023-07-10T07:33:28.431Z,23.89
2023-07-10T07:36:33.317Z,24.01
2023-07-10T07:39:35.105Z,23.87
2023-07-10T07:42:36.983Z,24.09
2023-07-10T07:45:40.474Z,24.12
2023-07-10T07:48:42.439Z,24.19
2023-07-10T07:51:44.666Z,24.36
2023-07-10T07:54:47.032Z,24.38
2023-07-10T07:57:48.759Z,24.58
2023-07-10T08:00:51.910Z,24.53
2023-07-10T08:03:54.231Z,24.81
2023-07-10T08:06:57.985Z,25.00
2023-07-10T08:10:01.869Z,24.95
2023-07-10T08:13:05.337Z,24.87
2023-07-10T08:16:08.632Z,25.09
2023-07-10T08:19:10.920Z,25.22
2023-07-10T08:22:12.686Z,25.41
2023-07-10T08:25:14.648Z,25.41
2023-07-10T08:28:16.363Z,25.37
2023-07-10T08:31:19.962Z,25.46
2023-07-10T08:34:22.664Z,25.40
2023-07-10T08:37:24.604Z,25.48
2023-07-10T08:40:31.791Z,25.53
2023-07-10T08:43:37.139Z,25.37
2023-07-10T08:46:40.476Z,25.40
2023-07-10T08:49:54.847Z,25.33
2023-07-10T08:53:07.047Z,25.55
2023-07-10T08:56:22.885Z,25.89
2023-07-10T08:59:47.759Z,25.74
2023-07-10T09:02:56.753Z,26.05
2023-07-10T09:05:59.147Z,26.21
2023-07-10T09:09:02.322Z,26.22
2023-07-10T09:12:11.254Z,26.20
2023-07-10T09:15:16.171Z,26.25
2023-07-10T09:18:24.765Z,26.27
2023-07-10T09:21:31.176Z,26.46
2023-07-10T09:24:33.329Z,26.66
2023-07-10T09:27:35.631Z,26.79
2023-07-10T09:30:51.328Z,26.91
2023-07-10T09:34:01.131Z,26.99
2023-07-10T09:37:06.508Z,26.97
2023-07-10T09:40:21.490Z,27.19
2023-07-10T09:43:25.330Z,27.32
2023-07-10T09:46:29.569Z,27.24
2023-07-10T09:49:57.959Z,27.06
2023-07-10T09:52:59.798Z,26.94
2023-07-10T09:56:01.748Z,27.04
2023-07-10T09:59:19.145Z,27.11
2023-07-10T10:02:23.922Z,27.36
2023-07-10T10:05:29.412Z,27.17
2023-07-10T10:08:33.748Z,27.16
2023-07-10T10:11:44.294Z,27.45
2023-07-10T10:14:52.658Z,27.74
2023-07-10T10:17:58.746Z,27.71
2023-07-10T10:21:03.694Z,27.94
2023-07-10T10:24:11.124Z,27.84
2023-07-10T10:27:23.937Z,27.78
2023-07-10T10:30:36.551Z,27.62
2023-07-10T10:33:48.428Z,27.64
2023-07-10T10:37:09.555Z,27.69
2023-07-10T10:40:23.501Z,27.83
2023-07-10T10:43:44.500Z,28.37
2023-07-10T10:46:59.342Z,28.39
2023-07-10T10:50:15.263Z,28.38
2023-07-10T10:53:36.014Z,28.32
2023-07-10T10:56:42.606Z,28.17
2023-07-10T10:59:52.962Z,28.04
2023-07-10T11:03:09.801Z,27.95
2023-07-10T11:06:32.557Z,27.99
2023-07-10T11:09:39.790Z,27.99
2023-07-10T11:12:42.470Z,28.28
2023-07-10T11:15:44.403Z,28.54
2023-07-10T11:18:47.738Z,28.88
2023-07-10T11:21:53.481Z,28.78
2023-07-10T11:24:57.297Z,29.37
2023-07-10T11:28:01.797Z,29.71
2023-07-10T11:31:38.294Z,29.70
2023-07-10T11:35:19.840Z,29.82
2023-07-10T11:38:25.787Z,29.88
2023-07-10T11:41:32.813Z,30.34
2023-07-10T11:44:40.798Z,30.44
2023-07-10T11:47:46.737Z,30.48
2023-07-10T11:50:50.507Z,30.40
2023-07-10T11:54:03.252Z,30.36
2023-07-10T11:57:27.817Z,30.65
2023-07-10T12:00:31.663Z,31.22
2023-07-10T12:03:36.488Z,31.36
2023-07-10T12:06:44.314Z,31.12
2023-07-10T12:09:50.419Z,31.25
2023-07-10T12:12:54.905Z,31.54
2023-07-10T12:16:00.137Z,31.25
2023-07-10T12:19:17.573Z,30.76
2023-07-10T12:22:21.871Z,30.46
2023-07-10T12:25:23.815Z,30.83
2023-07-10T12:28:29.718Z,31.05
2023-07-10T12:31:31.626Z,31.14
2023-07-10T12:34:33.934Z,30.74
2023-07-10T12:37:36.887Z,30.83
2023-07-10T12:40:40.592Z,30.96
2023-07-10T12:43:49.470Z,31.22
2023-07-10T12:46:56.266Z,30.94
2023-07-10T12:50:00.531Z,30.75
2023-07-10T12:53:06.131Z,31.06
2023-07-10T12:56:16.505Z,31.48
2023-07-10T12:59:25.091Z,31.45
2023-07-10T13:02:28.868Z,31.76
2023-07-10T13:05:32.729Z,31.85
2023-07-10T13:08:36.649Z,31.96
2023-07-10T13:11:45.023Z,31.91
2023-07-10T13:14:51.799Z,32.10
2023-07-10T13:17:56.631Z,32.17
2023-07-10T13:20:58.486Z,31.94
2023-07-10T13:24:00.335Z,32.00
2023-07-10T13:27:02.187Z,31.35
2023-07-10T13:30:16.275Z,31.72
2023-07-10T13:33:19.837Z,31.99
2023-07-10T13:36:27.832Z,32.04
2023-07-10T13:39:29.849Z,32.17
2023-07-10T13:42:32.200Z,32.30
2023-07-10T13:45:36.001Z,32.44
2023-07-10T13:48:37.725Z,32.53
2023-07-10T13:51:39.851Z,32.34
2023-07-10T13:54:41.997Z,32.46
2023-07-10T13:57:44.560Z,32.56
2023-07-10T14:00:50.114Z,32.29
2023-07-10T14:03:54.907Z,32.39
2023-07-10T14:06:57.645Z,31.99
2023-07-10T14:10:00.841Z,32.35
2023-07-10T14:13:05.875Z,32.54
2023-07-10T14:16:26.942Z,32.65
2023-07-10T14:19:29.255Z,32.27
2023-07-10T14:22:33.536Z,32.70
2023-07-10T14:25:35.420Z,32.30
2023-07-10T14:28:37.207Z,32.71
2023-07-10T14:31:40.734Z,33.19
2023-07-10T14:34:43.135Z,32.74
2023-07-10T14:37:45.246Z,32.60
2023-07-10T14:40:48.002Z,32.77
2023-07-10T14:43:51.014Z,32.74
2023-07-10T14:47:06.691Z,32.94
2023-07-10T14:50:13.513Z,32.64
2023-07-10T14:53:19.274Z,33.06
2023-07-10T14:56:21.108Z,32.80
2023-07-10T14:59:22.940Z,33.03
2023-07-10T15:02:27.478Z,33.07
2023-07-10T15:05:29.657Z,33.29
2023-07-10T15:08:40.769Z,33.19
2023-07-10T15:11:43.023Z,33.06
2023-07-10T15:14:49.365Z,32.79
2023-07-10T15:17:54.998Z,32.27
2023-07-10T15:20:57.206Z,32.65
2023-07-10T15:23:59.053Z,32.88
2023-07-10T15:27:06.521Z,32.70
2023-07-10T15:30:09.826Z,33.06
2023-07-10T15:33:16.165Z,32.92
2023-07-10T15:36:20.441Z,32.96
2023-07-10T15:39:23.170Z,33.01
2023-07-10T15:42:25.765Z,32.53
2023-07-10T15:45:32.980Z,32.74
2023-07-10T15:48:43.954Z,32.70
2023-07-10T15:51:46.635Z,32.60
2023-07-10T15:54:52.411Z,32.98
2023-07-10T15:57:55.856Z,32.85
2023-07-10T16:00:58.764Z,32.84
2023-07-10T16:04:05.992Z,32.47
2023-07-10T16:07:08.358Z,32.62
2023-07-10T16:10:14.188Z,32.51
2023-07-10T16:13:21.587Z,32.38
2023-07-10T16:16:25.264Z,32.69
2023-07-10T16:19:30.216Z,32.67
2023-07-10T16:22:32.581Z,32.28
2023-07-10T16:25:37.880Z,32.38
2023-07-10T16:28:40.047Z,32.39
2023-07-10T16:31:42.581Z,32.34
2023-07-10T16:34:45.952Z,32.33
2023-07-10T16:37:51.187Z,32.43
2023-07-10T16:40:55.982Z,32.24
2023-07-10T16:43:58.029Z,32.17
2023-07-10T16:47:04.626Z,31.93
2023-07-10T16:50:39.763Z,31.80
2023-07-10T16:53:42.976Z,31.94
2023-07-10T16:56:44.778Z,32.00
2023-07-10T16:59:46.646Z,31.99
2023-07-10T17:02:55.462Z,31.72
2023-07-10T17:06:00.430Z,31.84
2023-07-10T17:09:09.036Z,31.65
2023-07-10T17:12:11.505Z,31.26
2023-07-10T17:15:16.690Z,31.58
2023-07-10T17:18:20.239Z,31.53
2023-07-10T17:21:27.828Z,31.41
2023-07-10T17:24:34.696Z,31.15
2023-07-10T17:27:36.706Z,31.16
2023-07-10T17:30:38.885Z,31.25
2023-07-10T17:33:42.866Z,31.19
